Lafayette, IN (47902)

9:57 AM EST on January 27, 2015 (GMT -0500)
CUMBERLAND AVE | Change Station
CLOSE
Current Station
Personal Weather Station
Location: West Lafayette, IN
Elevation: 712 ft
Nearby Weather Stations

Elev 712 ft 40.46 °N, 86.90 °W | Updated 2 minutes ago

Fog
Fog
25.0 °F
Feels Like 25 °F
N
2.0
Wind Variable Wind from NNW
Gusts 2.0 mph

Today
High -- | Low -- °F
--% Chance of Precip.
Yesterday
High -- | Low -- °F
Precip. -- in
8:01 AM 5:59 PM
First Quarter, 55% visible
Pressure 30.09 in
Visibility 5.0 miles
Clouds Few 700 ft
Overcast 1500 ft
Windchill 25 °F
Dew Point 24 °F
Humidity 94%
Rainfall 0.00 in
Snow Depth Not available.
UV 0.6 out of 12
Pollen .10 out of 12
Air Quality Not available.
Flu Activity Not available.
SPECI KLAF 271452Z 04007KT 5SM BR FEW007 OVC015 M04/M06 A3009 RMK AO2

More Conditions Fewer Conditions

Pressure 30.09 in
Visibility 5.0 miles
Clouds Few 700 ft
Overcast 1500 ft
Windchill 25 °F
Dew Point 24 °F
Humidity 94%
Rainfall 0.00 in
Snow Depth Not available.
UV 0.6 out of 12
Pollen .10 out of 12
Air Quality Not available.
Flu Activity Not available.
SPECI KLAF 271452Z 04007KT 5SM BR FEW007 OVC015 M04/M06 A3009 RMK AO2

More Conditions Fewer Conditions

10-Day Weather Forecast

Almanac

Astronomy

Jan. 27, 2015 Rise Set
Actual Time
Civil Twilight
Nautical Twilight
Astronomical Twilight
Moon
Length of Visible Light
Length of Day
Tomorrow will be .
, % of the Moon is Illuminated

Today's Extremes

State Highs State Lows

Community

WunderPhotos

Upload Photos

1,790,655 photos uploaded!

WunderBlogs® & News

Nearby

Air Quality

  Air Quality AQ Index Pollutant
Not available.

Snow Depth

Station Depth Elevation

Earthquake Activity

City Distance Mag. Time & Date
Minimum magnitude displayed is 2.5.

Coastal Water Temperatures

Place Temperature

Nearby Weather Stations